Time;durP1;ratioP1;P1;durP2;ratioP2;P2;SDS_P1;SDS_P2;PMS_P1;PMS_P2;Temp;Humidity;BMP_temperature;BMP_pressure;BME280_temperature;BME280_humidity;BME280_pressure;Samples;Min_cycle;Max_cycle;Signal;HPM_P1;HPM_P2
2023/04/27 20:07:27;;;;;;;0.50;0.50;;;15.70;65.80;;;17.29;47.11;95160.41;5069135;28;20304;-40
2023/04/27 20:09:54;;;;;;;0.50;0.50;;;16.70;65.60;;;17.20;47.20;95167.09;5048760;28;20185;-40
2023/04/27 20:12:22;;;;;;;0.60;0.60;;;16.80;65.20;;;17.16;47.55;95157.94;5049119;28;20529;-40
2023/04/27 20:15:10;;;;;;;0.60;0.60;;;16.90;64.90;;;17.10;47.06;95159.69;5034306;28;20228;-40
2023/04/27 20:17:37;;;;;;;0.60;0.60;;;17.00;64.70;;;17.04;47.63;95154.47;5048486;28;20524;-40
2023/04/27 20:20:08;;;;;;;0.50;0.50;;;16.90;64.60;;;16.98;47.60;95158.03;5048378;28;20184;-40
2023/04/27 20:22:37;;;;;;;0.60;0.60;;;16.90;64.60;;;16.91;47.55;95164.19;5048768;28;20526;-40
2023/04/27 20:25:06;;;;;;;0.50;0.50;;;16.80;64.60;;;16.84;47.36;95167.97;5031376;28;20210;-40
2023/04/27 20:27:34;;;;;;;0.50;0.50;;;16.70;64.60;;;16.78;47.40;95167.84;5048647;28;20204;-40
2023/04/27 20:30:01;;;;;;;0.60;0.60;;;16.70;64.90;;;16.72;48.01;95174.03;5048418;28;20196;-40
2023/04/27 20:32:28;;;;;;;0.60;0.60;;;16.60;64.90;;;16.68;48.37;95169.41;5031298;28;20196;-40
2023/04/27 20:34:55;;;;;;;0.60;0.60;;;16.50;64.90;;;16.63;47.71;95170.06;5030956;28;20195;-40
2023/04/27 20:37:23;;;;;;;0.50;0.50;;;16.50;65.00;;;16.56;48.06;95164.06;5048748;28;20195;-40
2023/04/27 20:39:51;;;;;;;0.60;0.60;;;16.40;64.90;;;16.52;47.80;95165.53;5048090;28;20196;-39
2023/04/27 20:42:19;;;;;;;0.60;0.60;;;16.40;65.00;;;16.46;48.27;95175.16;5030809;28;20192;-40
2023/04/27 20:44:47;;;;;;;0.60;0.60;;;16.30;65.10;;;16.40;48.28;95170.78;5048107;28;20198;-40
2023/04/27 20:47:14;;;;;;;0.70;0.70;;;16.30;65.20;;;16.36;48.28;95172.25;5048353;28;20207;-40
2023/04/27 20:49:41;;;;;;;0.52;0.52;;;16.20;65.10;;;16.31;48.26;95173.72;5048101;28;20202;-41
2023/04/27 20:52:08;;;;;;;0.50;0.50;;;16.20;65.20;;;16.28;48.61;95173.34;5048737;28;20206;-40
2023/04/27 20:54:36;;;;;;;0.57;0.57;;;16.20;65.20;;;16.23;48.34;95173.19;5048495;28;20219;-40
2023/04/27 20:57:07;;;;;;;0.80;0.80;;;16.10;65.20;;;16.20;48.50;95181.56;5047816;28;20223;-40
2023/04/27 20:59:34;;;;;;;0.60;0.60;;;16.00;65.20;;;16.16;48.46;95179.38;5048149;28;20188;-40
2023/04/27 21:02:01;;;;;;;0.50;0.50;;;16.10;65.40;;;16.13;48.42;95173.72;5047712;28;20202;-38
2023/04/27 21:04:28;;;;;;;0.52;0.52;;;16.00;65.40;;;16.11;48.36;95176.59;5047776;28;20614;-40
2023/04/27 21:06:55;;;;;;;0.52;0.52;;;16.00;65.50;;;16.08;48.52;95171.72;5042626;28;20270;-40
2023/04/27 21:09:23;;;;;;;0.60;0.60;;;15.90;65.50;;;16.05;48.97;95163.41;5033588;28;20196;-40
2023/04/27 21:11:50;;;;;;;0.50;0.50;;;15.90;65.50;;;16.03;49.19;95170.75;5033857;28;20231;-40
2023/04/27 21:14:17;;;;;;;0.52;0.52;;;15.90;65.60;;;16.00;48.88;95177.28;5034130;28;20204;-41
2023/04/27 21:16:44;;;;;;;0.50;0.50;;;15.90;65.60;;;15.99;48.86;95178.31;5016866;28;20314;-39
2023/04/27 21:19:15;;;;;;;0.68;0.68;;;15.80;65.60;;;15.96;48.72;95174.28;5017027;28;20273;-40
2023/04/27 21:21:42;;;;;;;0.70;0.70;;;15.90;65.70;;;15.95;48.97;95180.63;5033994;28;20184;-40
2023/04/27 21:24:09;;;;;;;0.60;0.60;;;15.80;65.60;;;15.93;48.94;95177.38;5016740;28;20192;-40
2023/04/27 21:26:36;;;;;;;0.50;0.50;;;15.80;65.70;;;15.93;49.41;95176.53;5033913;28;20204;-40
2023/04/27 21:29:04;;;;;;;0.60;0.60;;;15.80;65.70;;;15.91;49.44;95165.41;5033913;28;20261;-41
2023/04/27 21:31:32;;;;;;;0.50;0.50;;;15.80;65.70;;;15.91;49.33;95173.34;5033824;28;20192;-40
2023/04/27 21:34:02;;;;;;;0.50;0.50;;;15.80;65.80;;;15.88;49.49;95166.66;5016685;28;20193;-40
2023/04/27 21:36:29;;;;;;;0.60;0.60;;;15.80;65.90;;;15.89;49.56;95167.44;5033730;28;20228;-40
2023/04/27 21:38:56;;;;;;;0.60;0.60;;;15.80;66.00;;;15.89;49.32;95165.59;5033799;28;20192;-40
2023/04/27 21:41:23;;;;;;;0.57;0.57;;;15.80;66.10;;;15.91;49.49;95162.75;5033203;28;20184;-40
2023/04/27 21:43:50;;;;;;;0.60;0.60;;;15.70;66.10;;;15.91;49.84;95160.09;5032934;28;20636;-40
2023/04/27 21:46:17;;;;;;;0.50;0.50;;;15.80;67.20;;;15.90;49.75;95151.34;5033241;28;20192;-40
2023/04/27 21:48:44;;;;;;;0.50;0.50;;;15.80;66.30;;;15.92;49.84;95153.78;5033872;28;20271;-40
2023/04/27 21:51:11;;;;;;;0.60;0.60;;;15.80;66.30;;;15.93;49.80;95148.28;5016992;28;20196;-40
2023/04/27 21:53:38;;;;;;;0.60;0.60;;;15.80;66.40;;;15.92;50.10;95146.66;5034069;28;20203;-40
2023/04/27 21:56:05;;;;;;;0.50;0.50;;;15.80;66.40;;;15.93;50.18;95137.69;5033537;28;20703;-40
2023/04/27 21:58:32;;;;;;;0.60;0.60;;;15.80;66.50;;;15.94;49.89;95143.78;5033740;28;20192;-40
2023/04/27 22:01:00;;;;;;;0.60;0.60;;;15.80;66.60;;;15.95;50.35;95135.66;5033736;28;20184;-40
2023/04/27 22:03:27;;;;;;;0.60;0.60;;;15.80;66.70;;;15.96;50.25;95133.78;5033688;28;20630;-40
2023/04/27 22:05:56;;;;;;;0.52;0.52;;;15.80;66.80;;;15.97;50.20;95130.13;5033771;28;20318;-40
2023/04/27 22:08:23;;;;;;;0.60;0.60;;;15.80;66.60;;;15.97;50.35;95138.84;5033550;28;20200;-40
2023/04/27 22:10:50;;;;;;;0.57;0.57;;;15.80;66.60;;;15.98;50.60;95139.69;5033344;28;20590;-40
2023/04/27 22:13:17;;;;;;;0.60;0.60;;;15.90;66.70;;;15.97;50.32;95130.91;5033737;28;20572;-40
2023/04/27 22:15:46;;;;;;;0.50;0.50;;;15.90;66.70;;;15.96;50.47;95124.00;5033600;28;20224;-40
2023/04/27 22:18:14;;;;;;;0.60;0.60;;;15.90;66.70;;;15.97;50.46;95128.28;5032951;28;20275;-40
2023/04/27 22:20:42;;;;;;;0.60;0.60;;;15.90;66.70;;;15.97;50.52;95130.91;5033442;28;20188;-40
2023/04/27 22:23:09;;;;;;;0.50;0.50;;;15.90;66.70;;;15.96;50.51;95134.59;5033615;28;20196;-40
2023/04/27 22:25:37;;;;;;;0.60;0.60;;;15.90;66.70;;;15.94;50.15;95131.38;5033403;28;20216;-40
2023/04/27 22:28:04;;;;;;;0.57;0.57;;;15.90;66.60;;;15.94;50.68;95127.91;5033264;28;20264;-40
2023/04/27 22:30:31;;;;;;;0.50;0.50;;;15.90;66.60;;;15.94;50.00;95138.50;5015906;28;20200;-38
2023/04/27 22:32:58;;;;;;;0.57;0.57;;;15.90;66.60;;;15.93;50.60;95136.88;5033152;28;20204;-40
2023/04/27 22:35:25;;;;;;;0.60;0.60;;;15.90;66.60;;;15.90;50.18;95124.88;5033248;28;20220;-40
2023/04/27 22:37:58;;;;;;;0.70;0.70;;;15.90;66.50;;;15.88;50.13;95134.06;5031690;28;20541;-40
2023/04/27 22:40:25;;;;;;;0.50;0.50;;;15.80;66.30;;;15.84;50.37;95129.25;5031359;28;20188;-40
2023/04/27 22:42:54;;;;;;;0.60;0.60;;;15.80;66.30;;;15.86;50.21;95136.16;5032496;28;20207;-42
2023/04/27 22:45:32;;;;;;;0.50;0.50;;;15.80;66.30;;;15.84;50.06;95131.06;5026298;28;20189;-43
2023/04/27 22:48:01;;;;;;;0.60;0.60;;;15.80;66.40;;;15.84;50.57;95131.06;5015973;28;20200;-43
2023/04/27 22:50:28;;;;;;;0.65;0.65;;;15.80;66.40;;;15.82;50.20;95133.09;5006263;28;20615;-44
2023/04/27 22:52:55;;;;;;;0.60;0.60;;;15.80;66.40;;;15.82;50.23;95144.50;5014410;28;20524;-43
2023/04/27 22:55:22;;;;;;;0.57;0.57;;;15.80;66.50;;;15.80;50.49;95143.09;5032411;28;20196;-42
2023/04/27 22:57:49;;;;;;;0.60;0.60;;;15.70;66.50;;;15.81;50.14;95150.00;5025697;28;20193;-42
2023/04/27 23:00:16;;;;;;;0.60;0.60;;;15.70;66.50;;;15.81;50.59;95150.00;5012678;28;20572;-43
2023/04/27 23:02:43;;;;;;;0.60;0.60;;;15.80;66.60;;;15.80;50.29;95133.31;5012092;28;20195;-43
2023/04/27 23:05:11;;;;;;;0.65;0.65;;;15.70;66.50;;;15.80;50.66;95135.94;5011676;28;20199;-43
2023/04/27 23:07:41;;;;;;;0.60;0.60;;;15.70;66.60;;;15.80;50.68;95137.78;5013426;28;20192;-43
2023/04/27 23:10:09;;;;;;;0.60;0.60;;;15.70;66.70;;;15.79;50.38;95139.63;5013255;28;20194;-42
2023/04/27 23:12:37;;;;;;;0.60;0.60;;;15.70;66.70;;;15.77;50.71;95131.13;5023182;27;20200;-42
2023/04/27 23:15:05;;;;;;;0.50;0.50;;;15.70;66.80;;;15.77;50.43;95131.13;5028598;28;20196;-43
2023/04/27 23:17:32;;;;;;;0.70;0.70;;;15.70;66.70;;;15.75;50.64;95130.50;5013704;28;20212;-41
2023/04/27 23:20:06;;;;;;;0.60;0.60;;;15.70;66.80;;;15.75;50.70;95135.81;5016422;28;20188;-42
2023/04/27 23:22:42;;;;;;;0.50;0.50;;;15.70;66.90;;;15.74;50.53;95131.53;5032653;28;20255;-41
2023/04/27 23:25:10;;;;;;;0.60;0.60;;;15.70;66.80;;;15.74;50.54;95128.88;5032633;28;20200;-41
2023/04/27 23:27:37;;;;;;;0.57;0.57;;;15.70;66.90;;;15.72;50.50;95116.91;5014775;28;20235;-40
2023/04/27 23:30:04;;;;;;;0.50;0.50;;;15.70;66.90;;;15.73;51.06;95123.81;5015284;28;20196;-41
2023/04/27 23:32:32;;;;;;;0.50;0.50;;;15.70;66.90;;;15.71;51.01;95121.41;5012435;28;20189;-41
2023/04/27 23:34:59;;;;;;;0.50;0.50;;;15.70;66.90;;;15.72;51.03;95122.22;5012313;28;20570;-41
2023/04/27 23:37:26;;;;;;;0.50;0.50;;;15.70;67.00;;;15.68;50.97;95113.91;5012477;28;20221;-38
2023/04/27 23:39:53;;;;;;;0.60;0.60;;;15.60;66.90;;;15.69;50.85;95120.81;5012332;28;20193;-38
2023/04/27 23:42:20;;;;;;;0.50;0.50;;;15.70;67.00;;;15.69;51.13;95124.25;5012229;28;20254;-39
2023/04/27 23:44:47;;;;;;;0.50;0.50;;;15.60;67.00;;;15.68;50.89;95129.75;5012255;28;20253;-38
2023/04/27 23:47:14;;;;;;;0.50;0.50;;;15.60;66.90;;;15.66;50.76;95118.59;5029529;28;20215;-38
2023/04/27 23:49:44;;;;;;;0.70;0.70;;;15.70;67.10;;;15.66;51.26;95127.34;5031975;28;20196;-39
2023/04/27 23:52:11;;;;;;;0.60;0.60;;;15.60;67.10;;;15.64;50.96;95113.53;5032525;28;20528;-39
2023/04/27 23:54:38;;;;;;;0.50;0.50;;;15.60;67.00;;;15.64;51.38;95121.47;5032156;28;20584;-38
2023/04/27 23:57:05;;;;;;;0.60;0.60;;;15.60;67.10;;;15.62;51.36;95118.22;5031836;28;20226;-39
2023/04/27 23:59:34;;;;;;;0.50;0.50;;;15.60;67.10;;;15.62;51.03;95110.28;5031791;28;20614;-39
